Airport View

Enter AWOS ICAO identifier for current METAR.

ex. KFNL

KAJZ 080555Z AUTO 03006KT 10SM CLR 20/M04 A3015 RMK AO2 T02011039 10350 20201 403620151

8 Aug 2020 06:21

Frequency: 134.000

Phone: 970-874-3251

Other Area AWOS: KMTJ - KGJT - KAIB - KRIL

TAF KMTJ 080528Z 0806/0906 14009KT P6SM SCT150 FM081300 33005KT P6SM FEW250 FM081800 32007KT P6SM FEW150 FEW250 FM082100 27010G17KT P6SM SCT250 FM090200 17008KT P6SM FEW250